Terminal Aerodrome Forecast
Issued by NWS Omaha/Valley, NE

Home | Current Version | Previous Version | Text Only | Print | Product List | Glossary On
Versions: 1 2 3 4 5 6 7 8 9 10 11 12 13 14 15 16 17
000
FTUS43 KOAX 011120
TAFOFK
TAF
KOFK 011120Z 0112/0212 03013KT P6SM -RA OVC010
      TEMPO 0112/0115 5SM -RA BR OVC007
     FM011500 01013G20KT 5SM -RA BR OVC007
     FM011800 01014G20KT P6SM OVC015
     FM012000 36012KT P6SM OVC025
     FM012300 35009KT P6SM OVC070
     FM020300 32007KT P6SM BKN250=

USA.gov is the U.S. government's official web portal to all federal, state and local government web resources and services.